Time;durP1;ratioP1;P1;durP2;ratioP2;P2;SDS_P1;SDS_P2;PMS_P1;PMS_P2;Temp;Humidity;BMP_temperature;BMP_pressure;BME280_temperature;BME280_humidity;BME280_pressure;Samples;Min_cycle;Max_cycle;Signal;HPM_P1;HPM_P2
2022/10/11 00:00:18;;;;;;;41.42;27.77;;;;;;;;;;5109064;27;20387;-70
2022/10/11 00:02:57;;;;;;;39.42;26.20;;;;;;;;;;5068759;28;20387;-71
2022/10/11 00:05:35;;;;;;;36.50;27.00;;;;;;;;;;5068550;28;20870;-70
2022/10/11 00:08:13;;;;;;;37.47;25.45;;;;;;;;;;5129567;27;20379;-70
2022/10/11 00:10:58;;;;;;;35.50;25.42;;;;;;;;;;5068672;28;20390;-70
2022/10/11 00:13:36;;;;;;;39.83;26.80;;;;;;;;;;5068833;28;20387;-70
2022/10/11 00:16:14;;;;;;;37.55;25.25;;;;;;;;;;5068805;28;20397;-71
2022/10/11 00:18:52;;;;;;;36.78;27.27;;;;;;;;;;5068700;28;20743;-70
2022/10/11 00:21:30;;;;;;;33.92;24.38;;;;;;;;;;5068558;28;20751;-71
2022/10/11 00:24:11;;;;;;;35.95;23.77;;;;;;;;;;5068491;28;20393;-70
2022/10/11 00:26:48;;;;;;;37.08;24.92;;;;;;;;;;5068665;28;20398;-70
2022/10/11 00:29:26;;;;;;;36.85;24.10;;;;;;;;;;5068611;28;20386;-71
2022/10/11 00:32:05;;;;;;;36.85;23.67;;;;;;;;;;5068481;28;20387;-70
2022/10/11 00:34:43;;;;;;;32.83;24.25;;;;;;;;;;5088528;27;20386;-70
2022/10/11 00:37:21;;;;;;;36.97;25.08;;;;;;;;;;5068577;28;20395;-71
2022/10/11 00:39:59;;;;;;;35.30;24.65;;;;;;;;;;5068816;28;20735;-70
2022/10/11 00:42:37;;;;;;;36.78;25.83;;;;;;;;;;5109276;27;20768;-70
2022/10/11 00:45:31;;;;;;;32.63;24.83;;;;;;;;;;5068547;28;20382;-70
2022/10/11 00:48:12;;;;;;;35.38;24.75;;;;;;;;;;5108880;27;20384;-71
2022/10/11 00:50:50;;;;;;;32.25;23.85;;;;;;;;;;5068518;28;20379;-70
2022/10/11 00:53:29;;;;;;;32.92;24.60;;;;;;;;;;5068608;28;20394;-71
2022/10/11 00:56:08;;;;;;;34.97;24.15;;;;;;;;;;5068382;28;20382;-70
2022/10/11 00:58:46;;;;;;;36.88;24.73;;;;;;;;;;5068391;28;20941;-71
2022/10/11 01:01:24;;;;;;;39.15;24.50;;;;;;;;;;5068447;28;20395;-71
2022/10/11 01:04:02;;;;;;;33.53;25.80;;;;;;;;;;5068463;28;20390;-71
2022/10/11 01:06:41;;;;;;;33.72;24.58;;;;;;;;;;5068575;28;20394;-71
2022/10/11 01:09:19;;;;;;;36.67;24.58;;;;;;;;;;5068530;28;20394;-71
2022/10/11 01:11:58;;;;;;;33.40;23.42;;;;;;;;;;5068385;28;20390;-70
2022/10/11 01:14:54;;;;;;;31.10;23.15;;;;;;;;;;5068835;28;20383;-70
2022/10/11 01:17:55;;;;;;;32.35;23.60;;;;;;;;;;5068723;28;20397;-70
2022/10/11 01:20:53;;;;;;;32.83;24.65;;;;;;;;;;5068640;28;20387;-71
2022/10/11 01:23:37;;;;;;;30.05;21.15;;;;;;;;;;5129639;27;20134;-70
2022/10/11 01:26:30;;;;;;;31.45;20.58;;;;;;;;;;5068646;28;20397;-71
2022/10/11 01:29:13;;;;;;;33.70;21.00;;;;;;;;;;5068660;28;20386;-70
2022/10/11 01:31:55;;;;;;;23.70;18.23;;;;;;;;;;5068425;28;20382;-70
2022/10/11 01:34:42;;;;;;;25.02;18.60;;;;;;;;;;5109100;27;20388;-70
2022/10/11 01:37:40;;;;;;;25.35;19.02;;;;;;;;;;5109059;27;20384;-71
2022/10/11 01:40:31;;;;;;;25.17;19.42;;;;;;;;;;5129838;27;20139;-71
2022/10/11 01:43:09;;;;;;;26.58;19.60;;;;;;;;;;5068528;28;20383;-70
2022/10/11 01:45:51;;;;;;;29.02;19.15;;;;;;;;;;5108919;27;20388;-70
2022/10/11 01:48:28;;;;;;;21.60;17.85;;;;;;;;;;5068593;28;21000;-70
2022/10/11 01:51:06;;;;;;;22.73;17.30;;;;;;;;;;5068757;28;20390;-70
2022/10/11 01:54:03;;;;;;;26.10;18.50;;;;;;;;;;5068561;28;20386;-70
2022/10/11 01:57:13;;;;;;;23.55;17.95;;;;;;;;;;5108940;27;20387;-70
2022/10/11 01:59:50;;;;;;;26.52;18.48;;;;;;;;;;5068329;28;20386;-70
2022/10/11 02:02:31;;;;;;;26.55;18.45;;;;;;;;;;5068664;28;20766;-70
2022/10/11 02:05:22;;;;;;;22.55;17.00;;;;;;;;;;5005448;28;20396;-71
2022/10/11 02:07:59;;;;;;;25.83;17.60;;;;;;;;;;5068548;28;20394;-70
2022/10/11 02:10:37;;;;;;;22.90;18.02;;;;;;;;;;5068404;28;20430;-70
2022/10/11 02:13:22;;;;;;;30.27;17.95;;;;;;;;;;5108782;27;20696;-70
2022/10/11 02:16:01;;;;;;;19.88;16.55;;;;;;;;;;5068782;28;20387;-71
2022/10/11 02:18:41;;;;;;;23.70;18.20;;;;;;;;;;5068397;28;20387;-71
2022/10/11 02:21:20;;;;;;;23.17;17.83;;;;;;;;;;5088839;27;20393;-70
2022/10/11 02:24:17;;;;;;;23.65;17.70;;;;;;;;;;5068378;28;20393;-70
2022/10/11 02:26:56;;;;;;;24.23;17.13;;;;;;;;;;5068597;28;20391;-70
2022/10/11 02:29:36;;;;;;;25.80;17.88;;;;;;;;;;5068334;28;20394;-71
2022/10/11 02:32:15;;;;;;;26.88;18.60;;;;;;;;;;5109451;27;20387;-70
2022/10/11 02:34:54;;;;;;;28.42;19.40;;;;;;;;;;5068499;28;20390;-70
2022/10/11 02:37:34;;;;;;;23.95;18.23;;;;;;;;;;5068422;28;20397;-71
2022/10/11 02:40:20;;;;;;;26.88;20.17;;;;;;;;;;5068598;28;20924;-70
2022/10/11 02:43:03;;;;;;;30.10;21.05;;;;;;;;;;5068274;28;20387;-70
2022/10/11 02:45:41;;;;;;;28.20;19.88;;;;;;;;;;5109047;27;20403;-70
2022/10/11 02:48:19;;;;;;;30.17;19.65;;;;;;;;;;5068391;28;20410;-70
2022/10/11 02:50:57;;;;;;;29.25;19.42;;;;;;;;;;5068520;28;20909;-70
2022/10/11 02:53:35;;;;;;;25.23;18.95;;;;;;;;;;5068387;28;20387;-70
2022/10/11 02:56:13;;;;;;;28.60;20.02;;;;;;;;;;5068516;28;20398;-71
2022/10/11 02:58:51;;;;;;;26.27;19.70;;;;;;;;;;5068593;28;20394;-70
2022/10/11 03:01:30;;;;;;;28.55;20.17;;;;;;;;;;5109392;27;20650;-71
2022/10/11 03:04:08;;;;;;;26.73;20.52;;;;;;;;;;5068628;28;20390;-70
2022/10/11 03:06:46;;;;;;;26.27;20.10;;;;;;;;;;5068591;28;20398;-70
2022/10/11 03:09:24;;;;;;;27.83;18.02;;;;;;;;;;5068473;28;20391;-71
2022/10/11 03:12:03;;;;;;;27.10;18.75;;;;;;;;;;5109148;27;20392;-70
2022/10/11 03:14:41;;;;;;;26.25;18.80;;;;;;;;;;5068664;28;20398;-71
2022/10/11 03:17:19;;;;;;;25.65;18.92;;;;;;;;;;5068631;28;20386;-71
2022/10/11 03:19:57;;;;;;;27.00;19.00;;;;;;;;;;5068405;28;20766;-70
2022/10/11 03:22:35;;;;;;;28.08;19.27;;;;;;;;;;5068490;28;20394;-70
2022/10/11 03:25:13;;;;;;;28.40;19.05;;;;;;;;;;5068407;28;20785;-70
2022/10/11 03:27:52;;;;;;;23.20;19.38;;;;;;;;;;5109105;27;20383;-70
2022/10/11 03:30:30;;;;;;;28.00;19.15;;;;;;;;;;5068898;28;20375;-70
2022/10/11 03:33:08;;;;;;;24.00;19.08;;;;;;;;;;5068540;28;20383;-70
2022/10/11 03:35:47;;;;;;;28.70;20.58;;;;;;;;;;5068360;28;20386;-71
2022/10/11 03:38:24;;;;;;;29.75;22.23;;;;;;;;;;5108903;27;20388;-70
2022/10/11 03:41:03;;;;;;;31.77;21.38;;;;;;;;;;5088776;28;20393;-70
2022/10/11 03:43:41;;;;;;;26.63;20.40;;;;;;;;;;5109139;27;20391;-71
2022/10/11 03:46:19;;;;;;;29.23;19.50;;;;;;;;;;5109068;27;20411;-71
2022/10/11 03:48:57;;;;;;;29.40;20.30;;;;;;;;;;5068263;28;20751;-70
2022/10/11 03:51:37;;;;;;;28.65;19.85;;;;;;;;;;5068320;28;20382;-70
2022/10/11 03:54:15;;;;;;;29.42;20.63;;;;;;;;;;5108988;27;20384;-70
2022/10/11 03:56:57;;;;;;;32.30;20.50;;;;;;;;;;5068842;28;20931;-70
2022/10/11 03:59:35;;;;;;;37.17;20.58;;;;;;;;;;5068251;28;20390;-70
2022/10/11 04:02:13;;;;;;;34.13;21.65;;;;;;;;;;5068390;28;20397;-71
2022/10/11 04:04:51;;;;;;;47.20;20.58;;;;;;;;;;5068460;28;20406;-71
2022/10/11 04:07:29;;;;;;;34.75;20.35;;;;;;;;;;5068595;28;20391;-70
2022/10/11 04:10:08;;;;;;;37.10;19.40;;;;;;;;;;5068502;28;20395;-70
2022/10/11 04:12:46;;;;;;;38.63;20.25;;;;;;;;;;5068542;28;20394;-70
2022/10/11 04:15:24;;;;;;;39.25;20.30;;;;;;;;;;5068141;28;20797;-70
2022/10/11 04:18:02;;;;;;;41.60;19.65;;;;;;;;;;5068336;28;20770;-70
2022/10/11 04:20:41;;;;;;;33.33;25.00;;;;;;;;;;5068973;28;20398;-70
2022/10/11 04:23:19;;;;;;;34.53;21.75;;;;;;;;;;5068419;28;20390;-70
2022/10/11 04:25:57;;;;;;;35.78;22.15;;;;;;;;;;5068312;28;20386;-70
2022/10/11 04:28:35;;;;;;;36.53;21.73;;;;;;;;;;5068198;28;20383;-70
2022/10/11 04:31:13;;;;;;;36.88;23.40;;;;;;;;;;5109012;27;20562;-71
2022/10/11 04:33:51;;;;;;;32.88;21.60;;;;;;;;;;5068447;28;20394;-70
2022/10/11 04:36:31;;;;;;;32.65;21.90;;;;;;;;;;5129513;27;20390;-70
2022/10/11 04:39:10;;;;;;;29.25;20.92;;;;;;;;;;5068543;28;20937;-70
2022/10/11 04:41:48;;;;;;;32.17;21.00;;;;;;;;;;5068428;28;20390;-70
2022/10/11 04:44:26;;;;;;;30.73;23.20;;;;;;;;;;5068247;28;20410;-70
2022/10/11 04:47:06;;;;;;;31.35;22.75;;;;;;;;;;5068393;28;20390;-70
2022/10/11 04:49:44;;;;;;;38.72;22.63;;;;;;;;;;5088845;28;20408;-70
2022/10/11 04:52:22;;;;;;;39.30;24.45;;;;;;;;;;5068385;28;20399;-71
2022/10/11 04:55:00;;;;;;;37.95;25.38;;;;;;;;;;5108840;27;20388;-71
2022/10/11 04:57:38;;;;;;;41.38;24.63;;;;;;;;;;5068151;28;20943;-70
2022/10/11 05:00:17;;;;;;;48.08;25.23;;;;;;;;;;5068403;28;20940;-70
2022/10/11 05:02:55;;;;;;;39.65;24.65;;;;;;;;;;5068304;28;20390;-70
2022/10/11 05:05:33;;;;;;;29.20;23.00;;;;;;;;;;5068240;28;20390;-70
2022/10/11 05:08:11;;;;;;;32.50;23.25;;;;;;;;;;5068243;28;20391;-70
2022/10/11 05:10:57;;;;;;;30.25;23.38;;;;;;;;;;5068136;28;20393;-70
2022/10/11 05:13:34;;;;;;;33.65;22.77;;;;;;;;;;5068402;28;20382;-70
2022/10/11 05:16:13;;;;;;;34.22;23.95;;;;;;;;;;5068307;28;20386;-70
2022/10/11 05:18:50;;;;;;;32.80;23.17;;;;;;;;;;5108775;27;20388;-70
2022/10/11 05:21:29;;;;;;;33.90;22.55;;;;;;;;;;5068321;28;20390;-70
2022/10/11 05:24:07;;;;;;;41.03;23.00;;;;;;;;;;5108939;27;20392;-71
2022/10/11 05:26:45;;;;;;;37.80;23.63;;;;;;;;;;5068559;28;20395;-70
2022/10/11 05:29:23;;;;;;;34.25;23.70;;;;;;;;;;5068389;28;20387;-70
2022/10/11 05:32:01;;;;;;;44.53;23.70;;;;;;;;;;5068280;28;20395;-70
2022/10/11 05:34:40;;;;;;;35.67;22.30;;;;;;;;;;5068250;28;20394;-71
2022/10/11 05:37:18;;;;;;;45.85;22.85;;;;;;;;;;5068357;28;20398;-71
2022/10/11 05:39:56;;;;;;;33.80;22.70;;;;;;;;;;5068358;28;20390;-70
2022/10/11 05:42:34;;;;;;;39.72;23.48;;;;;;;;;;5068311;28;20928;-71
2022/10/11 05:45:13;;;;;;;37.35;21.15;;;;;;;;;;5067215;28;20382;-69
2022/10/11 05:47:49;;;;;;;34.25;20.45;;;;;;;;;;5086722;27;1325006;-68
2022/10/11 05:50:27;;;;;;;31.13;19.85;;;;;;;;;;5067668;28;20383;-69
2022/10/11 05:53:06;;;;;;;41.35;20.73;;;;;;;;;;5128267;27;20770;-68
2022/10/11 05:55:44;;;;;;;33.85;19.90;;;;;;;;;;5068881;28;20808;-69
2022/10/11 05:58:26;;;;;;;41.72;18.88;;;;;;;;;;5108973;27;20380;-69
2022/10/11 06:01:03;;;;;;;36.75;17.08;;;;;;;;;;5068500;28;20394;-68
2022/10/11 06:03:42;;;;;;;30.73;17.42;;;;;;;;;;5068174;28;20952;-69
2022/10/11 06:06:20;;;;;;;31.65;16.40;;;;;;;;;;5150021;27;20388;-68
2022/10/11 06:09:00;;;;;;;37.67;15.80;;;;;;;;;;5108690;27;20399;-66
2022/10/11 06:11:40;;;;;;;33.90;16.42;;;;;;;;;;5068406;28;20386;-69
2022/10/11 06:14:31;;;;;;;34.55;16.52;;;;;;;;;;5088500;27;20414;-69
2022/10/11 06:17:23;;;;;;;40.03;18.45;;;;;;;;;;5095619;27;20382;-70
2022/10/11 06:20:21;;;;;;;35.22;16.83;;;;;;;;;;5112431;27;20493;-70
2022/10/11 06:23:21;;;;;;;31.85;15.90;;;;;;;;;;5130273;27;20411;-70
2022/10/11 06:26:17;;;;;;;29.00;17.00;;;;;;;;;;5191383;27;20422;-71
2022/10/11 06:29:12;;;;;;;34.10;15.75;;;;;;;;;;5191698;27;20378;-69
2022/10/11 06:32:07;;;;;;;24.15;15.02;;;;;;;;;;5149763;27;20309;-66
2022/10/11 06:35:14;;;;;;;31.38;15.57;;;;;;;;;;5147374;27;20481;-68
2022/10/11 06:38:17;;;;;;;42.10;16.67;;;;;;;;;;5130266;27;20771;-68
2022/10/11 06:41:18;;;;;;;27.17;16.00;;;;;;;;;;5087805;27;20439;-68
2022/10/11 06:44:16;;;;;;;28.88;15.23;;;;;;;;;;5088358;27;20446;-68
2022/10/11 06:47:08;;;;;;;27.80;15.38;;;;;;;;;;5088711;27;20410;-68
2022/10/11 06:50:05;;;;;;;30.20;16.80;;;;;;;;;;5192195;27;20378;-68
2022/10/11 06:53:09;;;;;;;23.15;14.55;;;;;;;;;;5077421;27;20448;-67
2022/10/11 06:56:07;;;;;;;27.27;14.48;;;;;;;;;;5089248;27;20438;-70
2022/10/11 06:58:59;;;;;;;29.77;17.02;;;;;;;;;;5089539;27;20414;-67
2022/10/11 07:01:51;;;;;;;29.05;18.10;;;;;;;;;;5089031;27;20450;-67
2022/10/11 07:04:43;;;;;;;28.55;18.35;;;;;;;;;;5129252;27;20360;-68
2022/10/11 07:07:38;;;;;;;25.80;16.30;;;;;;;;;;5118028;27;20485;-70
2022/10/11 07:10:29;;;;;;;26.27;17.08;;;;;;;;;;5089013;27;20442;-69
2022/10/11 07:13:27;;;;;;;34.15;17.40;;;;;;;;;;5129664;27;20318;-71
2022/10/11 07:16:28;;;;;;;29.23;15.70;;;;;;;;;;5117543;27;20359;-72
2022/10/11 07:19:20;;;;;;;29.10;17.85;;;;;;;;;;5120312;27;20434;-69
2022/10/11 07:22:27;;;;;;;23.95;14.52;;;;;;;;;;5028469;27;20327;-68
2022/10/11 07:25:22;;;;;;;36.63;17.15;;;;;;;;;;5148661;27;20391;-69
2022/10/11 07:28:13;;;;;;;19.98;12.98;;;;;;;;;;5088657;27;20438;-69
2022/10/11 07:31:12;;;;;;;28.10;15.45;;;;;;;;;;5150031;27;20317;-68
2022/10/11 07:34:06;;;;;;;23.13;14.02;;;;;;;;;;5088648;27;20990;-71
2022/10/11 07:37:04;;;;;;;30.15;15.07;;;;;;;;;;5112737;27;20403;-73
2022/10/11 07:39:55;;;;;;;19.00;12.35;;;;;;;;;;5089390;27;20453;-71
2022/10/11 07:42:47;;;;;;;22.67;13.65;;;;;;;;;;5129659;27;20350;-68
2022/10/11 07:45:47;;;;;;;20.50;13.27;;;;;;;;;;5109230;27;20441;-71
2022/10/11 07:48:38;;;;;;;23.38;14.02;;;;;;;;;;5088862;27;20465;-70
2022/10/11 07:51:29;;;;;;;20.88;13.60;;;;;;;;;;5129775;27;20351;-68
2022/10/11 07:54:21;;;;;;;26.30;17.17;;;;;;;;;;5119916;27;20430;-71
2022/10/11 07:57:16;;;;;;;24.88;16.13;;;;;;;;;;5129878;27;20326;-70
2022/10/11 08:00:10;;;;;;;22.23;14.90;;;;;;;;;;5094463;27;20149;-69
2022/10/11 08:03:22;;;;;;;25.63;14.45;;;;;;;;;;5147004;27;20876;-69
2022/10/11 08:06:16;;;;;;;20.55;12.80;;;;;;;;;;5088696;27;20438;-68
2022/10/11 08:09:25;;;;;;;22.45;14.10;;;;;;;;;;5130374;27;20411;-69
2022/10/11 08:12:20;;;;;;;19.50;12.90;;;;;;;;;;5191832;27;20394;-70
2022/10/11 08:15:30;;;;;;;21.70;12.45;;;;;;;;;;5126749;27;20329;-68
2022/10/11 08:18:27;;;;;;;31.20;13.63;;;;;;;;;;5089286;27;20442;-70
2022/10/11 08:21:25;;;;;;;20.13;12.25;;;;;;;;;;5089888;27;20984;-70
2022/10/11 08:24:31;;;;;;;14.38;10.07;;;;;;;;;;5130802;27;20407;-70
2022/10/11 08:27:23;;;;;;;15.70;9.90;;;;;;;;;;5089076;27;20446;-70
2022/10/11 08:30:18;;;;;;;15.75;9.30;;;;;;;;;;5149880;27;20725;-68
2022/10/11 08:33:23;;;;;;;10.95;7.90;;;;;;;;;;5130489;27;20502;-71
2022/10/11 08:36:15;;;;;;;16.10;10.23;;;;;;;;;;5088802;27;20418;-69
2022/10/11 08:39:10;;;;;;;14.00;8.55;;;;;;;;;;5107146;27;20328;-68
2022/10/11 08:42:19;;;;;;;13.82;9.55;;;;;;;;;;5191502;27;20398;-70
2022/10/11 08:45:29;;;;;;;20.83;12.02;;;;;;;;;;5149824;27;20366;-69
2022/10/11 08:48:40;;;;;;;16.77;9.85;;;;;;;;;;5150049;27;20047;-70
2022/10/11 08:51:46;;;;;;;12.15;8.80;;;;;;;;;;5149953;27;20207;-70
2022/10/11 08:54:50;;;;;;;18.50;9.88;;;;;;;;;;5149798;27;20038;-67
2022/10/11 08:57:56;;;;;;;17.50;9.30;;;;;;;;;;5149304;27;20031;-67
2022/10/11 09:01:01;;;;;;;19.85;8.52;;;;;;;;;;5149692;27;20482;-70
2022/10/11 09:04:05;;;;;;;8.52;6.43;;;;;;;;;;5149379;27;20035;-70
2022/10/11 09:07:09;;;;;;;9.73;7.40;;;;;;;;;;5149690;27;20039;-71
2022/10/11 09:10:32;;;;;;;10.25;7.07;;;;;;;;;;5149614;27;20039;-70
2022/10/11 09:13:40;;;;;;;14.15;6.50;;;;;;;;;;5149720;27;20043;-70
2022/10/11 09:16:49;;;;;;;12.90;7.95;;;;;;;;;;5149385;27;20039;-67
2022/10/11 09:19:53;;;;;;;10.70;6.10;;;;;;;;;;5149201;27;20031;-70
2022/10/11 09:22:57;;;;;;;12.85;7.03;;;;;;;;;;5149695;27;20494;-70
2022/10/11 09:26:09;;;;;;;16.98;7.03;;;;;;;;;;5149550;27;20039;-70
2022/10/11 09:29:16;;;;;;;12.07;6.13;;;;;;;;;;5136501;27;20481;-70
2022/10/11 09:32:22;;;;;;;8.80;4.93;;;;;;;;;;5148952;27;20034;-70
2022/10/11 09:35:27;;;;;;;10.98;5.85;;;;;;;;;;5148793;27;20391;-70
2022/10/11 09:38:32;;;;;;;10.20;6.50;;;;;;;;;;5149213;27;20485;-71
2022/10/11 09:41:48;;;;;;;11.52;7.65;;;;;;;;;;5149034;27;20062;-69
2022/10/11 09:44:54;;;;;;;12.38;6.25;;;;;;;;;;5148818;27;20043;-70
2022/10/11 09:47:59;;;;;;;13.95;6.15;;;;;;;;;;5148853;27;20482;-69
2022/10/11 09:51:11;;;;;;;7.78;5.25;;;;;;;;;;5147580;27;20034;-69
2022/10/11 09:54:17;;;;;;;8.77;4.72;;;;;;;;;;5134744;27;20043;-69
2022/10/11 09:57:24;;;;;;;6.53;5.40;;;;;;;;;;5135119;27;20039;-69
2022/10/11 10:00:32;;;;;;;7.63;5.30;;;;;;;;;;5134589;27;20430;-70
2022/10/11 10:03:43;;;;;;;9.77;5.50;;;;;;;;;;5134877;27;20031;-69
2022/10/11 10:06:48;;;;;;;7.03;5.05;;;;;;;;;;5134671;27;20043;-70
2022/10/11 10:09:52;;;;;;;11.93;5.50;;;;;;;;;;5134627;27;20375;-69
2022/10/11 10:12:58;;;;;;;8.30;5.10;;;;;;;;;;5134490;27;20035;-68
2022/10/11 10:16:02;;;;;;;6.55;4.75;;;;;;;;;;5134275;27;20035;-68
2022/10/11 10:19:17;;;;;;;8.30;5.10;;;;;;;;;;5134619;27;20031;-68
2022/10/11 10:22:27;;;;;;;8.50;5.63;;;;;;;;;;5134332;27;20055;-67
2022/10/11 10:25:33;;;;;;;14.35;6.60;;;;;;;;;;5134212;27;20395;-67
2022/10/11 10:28:38;;;;;;;11.88;5.18;;;;;;;;;;5134150;27;20039;-69
2022/10/11 10:31:49;;;;;;;20.23;6.80;;;;;;;;;;5133889;27;20035;-70
2022/10/11 10:35:02;;;;;;;10.00;5.25;;;;;;;;;;5133989;27;20039;-70
2022/10/11 10:38:10;;;;;;;13.90;6.05;;;;;;;;;;5134107;27;20040;-68
2022/10/11 10:41:16;;;;;;;9.02;4.95;;;;;;;;;;5133502;27;20051;-70
2022/10/11 10:44:20;;;;;;;16.13;6.00;;;;;;;;;;5133847;27;20027;-72
2022/10/11 10:47:25;;;;;;;7.82;5.22;;;;;;;;;;5134077;27;20403;-72
2022/10/11 10:50:29;;;;;;;11.30;4.65;;;;;;;;;;5134033;27;20032;-70
2022/10/11 10:53:52;;;;;;;10.15;4.82;;;;;;;;;;5133650;27;20043;-67
2022/10/11 10:56:58;;;;;;;8.50;4.63;;;;;;;;;;5134036;27;20035;-68
2022/10/11 11:00:03;;;;;;;10.45;4.68;;;;;;;;;;5133886;27;20039;-70
2022/10/11 11:03:18;;;;;;;8.95;5.00;;;;;;;;;;5132076;27;20040;-71
2022/10/11 11:06:27;;;;;;;7.95;4.50;;;;;;;;;;5133285;27;20027;-69
2022/10/11 11:10:00;;;;;;;9.77;5.30;;;;;;;;;;5133040;27;20395;-69
2022/10/11 11:13:05;;;;;;;6.78;4.32;;;;;;;;;;5133380;27;20227;-69
2022/10/11 11:16:17;;;;;;;8.73;4.30;;;;;;;;;;5133630;27;20482;-70
2022/10/11 11:19:40;;;;;;;5.82;4.70;;;;;;;;;;5132825;27;20392;-70
2022/10/11 11:22:47;;;;;;;7.97;4.95;;;;;;;;;;5132657;27;20411;-70
2022/10/11 11:26:01;;;;;;;13.38;5.35;;;;;;;;;;5132548;27;20616;-70
2022/10/11 11:29:13;;;;;;;12.57;5.82;;;;;;;;;;5132947;27;20027;-70
2022/10/11 11:32:24;;;;;;;6.90;5.00;;;;;;;;;;5132940;27;20364;-70
2022/10/11 11:35:36;;;;;;;9.48;5.97;;;;;;;;;;5132880;27;20039;-70
2022/10/11 11:38:50;;;;;;;8.18;4.90;;;;;;;;;;5133260;27;20039;-70
2022/10/11 11:42:06;;;;;;;11.38;5.05;;;;;;;;;;5132710;27;20039;-70
2022/10/11 11:45:21;;;;;;;7.40;4.80;;;;;;;;;;5132669;27;20487;-70
2022/10/11 11:48:26;;;;;;;6.88;4.82;;;;;;;;;;5132809;27;20194;-70
2022/10/11 11:51:30;;;;;;;6.57;4.35;;;;;;;;;;5132745;27;20031;-70
2022/10/11 11:54:49;;;;;;;12.00;5.35;;;;;;;;;;5132540;27;20031;-70
2022/10/11 11:58:12;;;;;;;8.73;4.35;;;;;;;;;;5132880;27;20031;-70
2022/10/11 12:01:23;;;;;;;8.23;4.88;;;;;;;;;;5132526;27;20064;-70
2022/10/11 12:04:37;;;;;;;8.38;4.55;;;;;;;;;;5133085;27;20038;-70
2022/10/11 12:07:48;;;;;;;7.85;5.20;;;;;;;;;;5132192;27;20043;-70
2022/10/11 12:10:58;;;;;;;10.02;5.72;;;;;;;;;;5132316;27;20043;-70
2022/10/11 12:14:15;;;;;;;9.18;4.90;;;;;;;;;;5132820;27;20031;-70
2022/10/11 12:17:21;;;;;;;7.10;4.88;;;;;;;;;;5132436;27;20047;-70
2022/10/11 12:20:30;;;;;;;11.18;5.32;;;;;;;;;;5132214;27;20363;-70
2022/10/11 12:23:38;;;;;;;8.75;5.30;;;;;;;;;;5132036;27;20039;-70
2022/10/11 12:26:44;;;;;;;6.18;4.60;;;;;;;;;;5132304;27;20035;-69
2022/10/11 12:29:48;;;;;;;5.95;4.03;;;;;;;;;;5132152;27;20039;-70
2022/10/11 12:33:03;;;;;;;8.52;4.60;;;;;;;;;;5132004;27;20458;-69
2022/10/11 12:36:26;;;;;;;7.93;5.13;;;;;;;;;;5119252;27;20039;-70
2022/10/11 12:39:42;;;;;;;5.97;5.22;;;;;;;;;;5131992;27;20039;-69
2022/10/11 12:43:07;;;;;;;12.07;5.22;;;;;;;;;;5132303;28;20367;-69
2022/10/11 12:46:40;;;;;;;6.97;4.15;;;;;;;;;;5132174;27;20035;-68
2022/10/11 12:49:55;;;;;;;7.20;4.65;;;;;;;;;;5080740;28;20190;-68
2022/10/11 12:53:00;;;;;;;5.82;3.97;;;;;;;;;;5131794;27;20035;-69
2022/10/11 12:56:19;;;;;;;7.50;4.03;;;;;;;;;;5131639;27;20039;-67
2022/10/11 12:59:24;;;;;;;6.63;4.18;;;;;;;;;;5131648;28;20478;-68
2022/10/11 13:02:41;;;;;;;9.77;4.63;;;;;;;;;;5131856;28;20046;-68
2022/10/11 13:05:45;;;;;;;5.07;4.18;;;;;;;;;;5131187;28;20032;-68
2022/10/11 13:08:53;;;;;;;9.05;4.35;;;;;;;;;;5130716;28;20375;-68
2022/10/11 13:12:04;;;;;;;6.38;4.07;;;;;;;;;;5131329;28;20035;-68
2022/10/11 13:15:08;;;;;;;;;;;;;;;;;;5131783;27;20483;-68
2022/10/11 13:18:14;;;;;;;8.20;4.47;;;;;;;;;;5131297;27;19914;-68
2022/10/11 13:21:30;;;;;;;8.05;5.55;;;;;;;;;;5131177;28;20047;-68
2022/10/11 13:24:37;;;;;;;10.48;5.25;;;;;;;;;;5131527;28;20035;-68
2022/10/11 13:27:41;;;;;;;7.60;5.93;;;;;;;;;;5133489;27;20039;-68
2022/10/11 13:30:47;;;;;;;9.25;6.18;;;;;;;;;;5135329;27;20032;-68
2022/10/11 13:33:53;;;;;;;12.13;6.50;;;;;;;;;;5135113;27;20273;-68
2022/10/11 13:36:58;;;;;;;11.27;6.53;;;;;;;;;;5135201;27;20035;-68
2022/10/11 13:40:03;;;;;;;12.43;6.25;;;;;;;;;;5134841;27;20043;-70
2022/10/11 13:43:08;;;;;;;27.73;8.60;;;;;;;;;;5135172;27;20039;-70
2022/10/11 13:46:18;;;;;;;16.10;7.68;;;;;;;;;;5135299;27;20042;-68
2022/10/11 13:49:26;;;;;;;22.77;7.90;;;;;;;;;;5134875;27;20043;-70
2022/10/11 13:52:31;;;;;;;15.73;7.43;;;;;;;;;;5134490;27;20043;-69
2022/10/11 13:55:46;;;;;;;18.85;8.05;;;;;;;;;;5134662;27;20031;-70
2022/10/11 13:58:52;;;;;;;11.40;7.45;;;;;;;;;;5134544;27;20415;-69
2022/10/11 14:02:00;;;;;;;16.02;8.25;;;;;;;;;;5133579;27;20047;-69
2022/10/11 14:05:04;;;;;;;14.60;8.77;;;;;;;;;;5134841;27;20482;-70
2022/10/11 14:08:21;;;;;;;19.52;8.70;;;;;;;;;;5134835;27;20039;-70
2022/10/11 14:11:36;;;;;;;26.88;11.25;;;;;;;;;;5134612;27;20039;-70
2022/10/11 14:14:41;;;;;;;17.67;9.20;;;;;;;;;;5134595;27;20050;-69
2022/10/11 14:17:45;;;;;;;14.40;8.13;;;;;;;;;;5134748;27;20359;-69
2022/10/11 14:20:50;;;;;;;16.40;9.18;;;;;;;;;;5134761;27;20043;-69
2022/10/11 14:23:56;;;;;;;30.77;11.38;;;;;;;;;;5134140;27;20463;-70
2022/10/11 14:27:04;;;;;;;20.02;10.68;;;;;;;;;;5134351;27;20058;-69
2022/10/11 14:30:19;;;;;;;32.45;11.38;;;;;;;;;;5134713;27;20043;-70
2022/10/11 14:33:23;;;;;;;18.42;8.60;;;;;;;;;;5121487;27;20054;-69
2022/10/11 14:36:30;;;;;;;25.48;9.13;;;;;;;;;;5134450;27;20035;-69
2022/10/11 14:39:34;;;;;;;34.67;10.77;;;;;;;;;;5133708;27;20036;-68
2022/10/11 14:42:38;;;;;;;36.78;11.95;;;;;;;;;;5133143;27;20460;-68
2022/10/11 14:45:43;;;;;;;21.48;11.10;;;;;;;;;;5133016;27;20042;-68
2022/10/11 14:48:47;;;;;;;17.10;9.18;;;;;;;;;;5133473;27;20054;-68
2022/10/11 14:51:53;;;;;;;29.27;11.48;;;;;;;;;;5133559;27;20039;-68
2022/10/11 14:54:58;;;;;;;22.85;11.23;;;;;;;;;;5133755;27;20038;-68
2022/10/11 14:58:02;;;;;;;13.23;10.00;;;;;;;;;;5133695;27;20039;-68
2022/10/11 15:01:09;;;;;;;21.55;10.77;;;;;;;;;;5133727;27;20046;-68
2022/10/11 15:04:14;;;;;;;23.73;12.10;;;;;;;;;;5133328;27;20046;-68
2022/10/11 15:07:18;;;;;;;24.73;13.50;;;;;;;;;;5133757;27;20038;-68
2022/10/11 15:10:25;;;;;;;16.00;11.73;;;;;;;;;;5134018;27;20062;-68
2022/10/11 15:13:29;;;;;;;22.17;12.55;;;;;;;;;;5133615;27;20042;-68
2022/10/11 15:16:33;;;;;;;18.05;11.23;;;;;;;;;;5133219;27;20038;-70
2022/10/11 15:19:38;;;;;;;19.20;10.38;;;;;;;;;;5133456;27;20069;-70
2022/10/11 15:22:42;;;;;;;14.43;11.10;;;;;;;;;;5133125;27;20054;-69
2022/10/11 15:25:47;;;;;;;27.13;11.75;;;;;;;;;;5133020;27;20038;-68
2022/10/11 15:28:52;;;;;;;18.98;9.80;;;;;;;;;;5133114;27;20052;-69
2022/10/11 15:31:56;;;;;;;18.98;13.18;;;;;;;;;;5120413;27;20367;-70
2022/10/11 15:35:00;;;;;;;17.50;11.15;;;;;;;;;;5132238;27;20042;-70
2022/10/11 15:38:05;;;;;;;15.60;12.55;;;;;;;;;;5132415;27;20042;-69
2022/10/11 15:41:14;;;;;;;18.95;11.93;;;;;;;;;;5132135;27;20054;-69
2022/10/11 15:44:18;;;;;;;14.38;8.93;;;;;;;;;;5132859;27;20398;-68
2022/10/11 15:47:22;;;;;;;12.43;7.50;;;;;;;;;;5132793;27;20065;-70
2022/10/11 15:50:36;;;;;;;11.75;8.25;;;;;;;;;;5132170;27;20039;-69
2022/10/11 15:53:40;;;;;;;14.13;9.52;;;;;;;;;;5132513;27;20047;-69
2022/10/11 15:56:45;;;;;;;23.27;9.75;;;;;;;;;;5132397;27;20039;-69
2022/10/11 15:59:50;;;;;;;13.45;7.25;;;;;;;;;;5132400;27;20474;-69
2022/10/11 16:02:54;;;;;;;9.70;6.90;;;;;;;;;;5132471;27;20043;-69
2022/10/11 16:05:59;;;;;;;13.10;6.50;;;;;;;;;;5132632;27;20039;-70
2022/10/11 16:09:04;;;;;;;19.23;7.50;;;;;;;;;;5132246;27;20043;-70
2022/10/11 16:12:08;;;;;;;16.45;8.45;;;;;;;;;;5132181;27;20031;-69
2022/10/11 16:15:13;;;;;;;12.70;7.43;;;;;;;;;;5119430;27;20055;-69
2022/10/11 16:18:19;;;;;;;14.10;7.32;;;;;;;;;;5132347;27;20363;-70
2022/10/11 16:21:23;;;;;;;17.85;8.50;;;;;;;;;;5132607;27;20039;-69
2022/10/11 16:24:27;;;;;;;14.23;9.68;;;;;;;;;;5119702;27;20035;-69
2022/10/11 16:27:32;;;;;;;16.95;10.38;;;;;;;;;;5132149;27;20043;-69
2022/10/11 16:30:42;;;;;;;17.63;9.50;;;;;;;;;;5131828;27;20054;-69
2022/10/11 16:33:47;;;;;;;16.20;10.38;;;;;;;;;;5131655;27;20035;-69
2022/10/11 16:36:51;;;;;;;28.20;11.35;;;;;;;;;;5132462;27;20043;-70
2022/10/11 16:39:55;;;;;;;19.30;12.45;;;;;;;;;;5131833;27;20046;-70
2022/10/11 16:43:02;;;;;;;21.33;12.30;;;;;;;;;;5131881;27;20042;-70
2022/10/11 16:46:06;;;;;;;25.25;13.50;;;;;;;;;;5131718;27;20402;-69
2022/10/11 16:49:11;;;;;;;14.32;9.88;;;;;;;;;;5131883;27;20047;-71
2022/10/11 16:52:15;;;;;;;16.20;10.50;;;;;;;;;;5131765;28;20043;-70
2022/10/11 16:55:19;;;;;;;20.48;10.43;;;;;;;;;;5131633;27;20046;-70
2022/10/11 16:58:24;;;;;;;16.45;10.70;;;;;;;;;;5131917;28;20053;-70
2022/10/11 17:01:29;;;;;;;20.08;11.57;;;;;;;;;;5132172;27;20512;-70
2022/10/11 17:04:34;;;;;;;21.70;11.25;;;;;;;;;;5136168;27;20042;-70
2022/10/11 17:07:38;;;;;;;15.65;12.95;;;;;;;;;;5135865;27;20058;-71